Portada
METAR-TAF:

METAR-TAF

Aeroports :

Kisarazu, Japó

latitud: 35-24N, longitud: 139-55E, altitud: 3 m

Observació

L'informe es va fer fa 5 hores i 23 minuts, a les 06:12 UTC
Vent 9 kt del Est/Nord-Est
Temperatura 24°C
Humitat 74%
Pressió 1015 hPa
Visibilitat 10 km o més
Escasses núvols a una alçada de 2500 ft
Núvols disperses a una alçada de 3000 ft
Cel ennuvolat a una alçada de 6000 ft
xàfecs de pluja

METAR: RJTK 220612Z 06009KT 9999 -SHRA FEW025 SCT030 BKN060 24/19 Q1015 RMK 1CU025 3CU030 6SC060 A3000

Hora: 20:35 (11:35 UTC)


TAF: manca

Observacions i pronòstics meteorològics de més de 4000 aeroports (METAR i TAF).

Les estacions disponibles són els punts grocs i vermells al mapa.

Posi el ratolí al punt desitjat per veure el nom de l'estació.

Feu clic per veure les observacions i els pronòstics meteorològics.

Per canviar el mapa: feu clic els botons verds amb una creu de color negre per apropar; al botó verd amb un guió per allunyar la imatge; o en les fletxes verdes per a mapes adjacents.


METAR-TAF: